sensor_id;sensor_type;location;lat;lon;timestamp;P1;durP1;ratioP1;P2;durP2;ratioP2
75963;SDS011;65820;44.726;37.764;2023-02-11T00:00:56;5.70;;;2.45;;
75963;SDS011;65820;44.726;37.764;2023-02-11T00:01:57;5.47;;;2.80;;
75963;SDS011;65820;44.726;37.764;2023-02-11T00:04:54;6.32;;;2.30;;
75963;SDS011;65820;44.726;37.764;2023-02-11T00:12:15;7.22;;;2.10;;
75963;SDS011;65820;44.726;37.764;2023-02-11T00:13:19;5.30;;;2.33;;
75963;SDS011;65820;44.726;37.764;2023-02-11T00:14:21;7.05;;;2.90;;
75963;SDS011;65820;44.726;37.764;2023-02-11T00:18:29;8.63;;;2.30;;
75963;SDS011;65820;44.726;37.764;2023-02-11T00:21:22;5.18;;;2.45;;
75963;SDS011;65820;44.726;37.764;2023-02-11T00:22:26;5.22;;;2.30;;
75963;SDS011;65820;44.726;37.764;2023-02-11T00:23:28;5.90;;;2.70;;
75963;SDS011;65820;44.726;37.764;2023-02-11T00:24:29;7.95;;;2.75;;
75963;SDS011;65820;44.726;37.764;2023-02-11T00:25:30;6.30;;;2.50;;
75963;SDS011;65820;44.726;37.764;2023-02-11T00:26:32;5.70;;;2.60;;
75963;SDS011;65820;44.726;37.764;2023-02-11T00:44:02;6.13;;;2.40;;
75963;SDS011;65820;44.726;37.764;2023-02-11T00:58:23;6.22;;;2.83;;
75963;SDS011;65820;44.726;37.764;2023-02-11T01:05:32;7.43;;;2.45;;
75963;SDS011;65820;44.726;37.764;2023-02-11T01:06:34;5.75;;;2.35;;
75963;SDS011;65820;44.726;37.764;2023-02-11T01:07:35;6.13;;;2.38;;
75963;SDS011;65820;44.726;37.764;2023-02-11T01:13:31;6.07;;;2.25;;
75963;SDS011;65820;44.726;37.764;2023-02-11T01:14:34;5.80;;;2.30;;
75963;SDS011;65820;44.726;37.764;2023-02-11T01:15:36;6.30;;;2.40;;
75963;SDS011;65820;44.726;37.764;2023-02-11T01:16:37;6.20;;;2.78;;
75963;SDS011;65820;44.726;37.764;2023-02-11T01:17:39;5.22;;;2.40;;
75963;SDS011;65820;44.726;37.764;2023-02-11T01:18:40;5.90;;;2.45;;
75963;SDS011;65820;44.726;37.764;2023-02-11T01:20:45;6.28;;;2.58;;
75963;SDS011;65820;44.726;37.764;2023-02-11T01:21:46;5.47;;;2.65;;
75963;SDS011;65820;44.726;37.764;2023-02-11T01:22:47;6.70;;;2.55;;
75963;SDS011;65820;44.726;37.764;2023-02-11T01:23:49;6.03;;;2.25;;
75963;SDS011;65820;44.726;37.764;2023-02-11T01:32:54;6.10;;;2.15;;
75963;SDS011;65820;44.726;37.764;2023-02-11T01:33:55;5.60;;;2.28;;
75963;SDS011;65820;44.726;37.764;2023-02-11T01:34:56;7.25;;;2.60;;
75963;SDS011;65820;44.726;37.764;2023-02-11T01:36:01;4.80;;;2.13;;
75963;SDS011;65820;44.726;37.764;2023-02-11T01:37:04;6.53;;;2.28;;
75963;SDS011;65820;44.726;37.764;2023-02-11T01:38:05;6.30;;;2.35;;
75963;SDS011;65820;44.726;37.764;2023-02-11T01:39:07;5.88;;;2.63;;
75963;SDS011;65820;44.726;37.764;2023-02-11T01:40:11;5.93;;;2.45;;
75963;SDS011;65820;44.726;37.764;2023-02-11T01:41:14;5.85;;;2.33;;
75963;SDS011;65820;44.726;37.764;2023-02-11T01:42:16;5.65;;;2.30;;
75963;SDS011;65820;44.726;37.764;2023-02-11T01:43:19;5.45;;;2.28;;
75963;SDS011;65820;44.726;37.764;2023-02-11T01:47:26;6.50;;;2.38;;
75963;SDS011;65820;44.726;37.764;2023-02-11T01:48:37;5.07;;;2.10;;
75963;SDS011;65820;44.726;37.764;2023-02-11T01:49:47;7.28;;;2.22;;
75963;SDS011;65820;44.726;37.764;2023-02-11T01:50:52;4.93;;;2.15;;
75963;SDS011;65820;44.726;37.764;2023-02-11T01:54:20;5.80;;;2.70;;
75963;SDS011;65820;44.726;37.764;2023-02-11T01:55:43;5.80;;;2.63;;
75963;SDS011;65820;44.726;37.764;2023-02-11T01:57:03;6.18;;;2.53;;
75963;SDS011;65820;44.726;37.764;2023-02-11T01:58:25;6.40;;;2.63;;
75963;SDS011;65820;44.726;37.764;2023-02-11T02:04:30;4.82;;;2.13;;
75963;SDS011;65820;44.726;37.764;2023-02-11T02:06:57;6.75;;;2.70;;
75963;SDS011;65820;44.726;37.764;2023-02-11T02:12:56;4.35;;;2.05;;
75963;SDS011;65820;44.726;37.764;2023-02-11T02:27:49;6.40;;;2.25;;
75963;SDS011;65820;44.726;37.764;2023-02-11T02:32:18;6.50;;;2.42;;
75963;SDS011;65820;44.726;37.764;2023-02-11T02:37:17;5.97;;;2.30;;
75963;SDS011;65820;44.726;37.764;2023-02-11T02:38:40;5.50;;;2.20;;
75963;SDS011;65820;44.726;37.764;2023-02-11T02:39:52;5.18;;;2.45;;
75963;SDS011;65820;44.726;37.764;2023-02-11T02:41:07;4.93;;;2.28;;
75963;SDS011;65820;44.726;37.764;2023-02-11T02:44:24;5.60;;;2.38;;
75963;SDS011;65820;44.726;37.764;2023-02-11T02:46:30;4.97;;;2.00;;
75963;SDS011;65820;44.726;37.764;2023-02-11T02:47:32;4.95;;;2.15;;
75963;SDS011;65820;44.726;37.764;2023-02-11T02:48:33;5.75;;;2.40;;
75963;SDS011;65820;44.726;37.764;2023-02-11T02:49:38;4.82;;;1.95;;
75963;SDS011;65820;44.726;37.764;2023-02-11T02:55:49;4.70;;;1.92;;
75963;SDS011;65820;44.726;37.764;2023-02-11T02:59:39;5.15;;;1.80;;
75963;SDS011;65820;44.726;37.764;2023-02-11T03:03:59;4.65;;;2.05;;
75963;SDS011;65820;44.726;37.764;2023-02-11T03:08:26;4.47;;;1.98;;
75963;SDS011;65820;44.726;37.764;2023-02-11T03:09:37;5.70;;;2.00;;
75963;SDS011;65820;44.726;37.764;2023-02-11T03:11:40;5.07;;;2.60;;
75963;SDS011;65820;44.726;37.764;2023-02-11T03:12:41;5.30;;;2.25;;
75963;SDS011;65820;44.726;37.764;2023-02-11T03:13:45;4.78;;;2.30;;
75963;SDS011;65820;44.726;37.764;2023-02-11T03:14:50;5.70;;;2.63;;
75963;SDS011;65820;44.726;37.764;2023-02-11T03:15:52;4.82;;;2.00;;
75963;SDS011;65820;44.726;37.764;2023-02-11T03:16:57;4.95;;;2.30;;
75963;SDS011;65820;44.726;37.764;2023-02-11T03:18:02;5.45;;;2.22;;
75963;SDS011;65820;44.726;37.764;2023-02-11T03:19:14;5.05;;;2.20;;
75963;SDS011;65820;44.726;37.764;2023-02-11T03:20:20;5.13;;;2.10;;
75963;SDS011;65820;44.726;37.764;2023-02-11T03:21:23;5.00;;;2.22;;
75963;SDS011;65820;44.726;37.764;2023-02-11T03:22:26;4.38;;;2.17;;
75963;SDS011;65820;44.726;37.764;2023-02-11T03:23:36;6.20;;;2.10;;
75963;SDS011;65820;44.726;37.764;2023-02-11T03:26:29;5.53;;;2.10;;
75963;SDS011;65820;44.726;37.764;2023-02-11T03:29:09;4.60;;;1.55;;
75963;SDS011;65820;44.726;37.764;2023-02-11T03:30:40;4.75;;;1.90;;
75963;SDS011;65820;44.726;37.764;2023-02-11T03:33:29;4.38;;;1.83;;
75963;SDS011;65820;44.726;37.764;2023-02-11T03:34:51;4.07;;;1.50;;
75963;SDS011;65820;44.726;37.764;2023-02-11T03:36:04;6.63;;;1.75;;
75963;SDS011;65820;44.726;37.764;2023-02-11T03:37:20;4.57;;;1.58;;
75963;SDS011;65820;44.726;37.764;2023-02-11T03:38:36;5.05;;;1.50;;
75963;SDS011;65820;44.726;37.764;2023-02-11T03:39:44;3.55;;;1.50;;
75963;SDS011;65820;44.726;37.764;2023-02-11T03:40:48;4.47;;;1.50;;
75963;SDS011;65820;44.726;37.764;2023-02-11T03:41:51;3.60;;;1.40;;
75963;SDS011;65820;44.726;37.764;2023-02-11T03:42:57;3.85;;;1.50;;
75963;SDS011;65820;44.726;37.764;2023-02-11T03:45:36;3.67;;;1.60;;
75963;SDS011;65820;44.726;37.764;2023-02-11T03:46:39;4.35;;;1.73;;
75963;SDS011;65820;44.726;37.764;2023-02-11T03:49:15;3.65;;;1.30;;
75963;SDS011;65820;44.726;37.764;2023-02-11T03:50:20;5.03;;;1.38;;
75963;SDS011;65820;44.726;37.764;2023-02-11T03:51:23;6.22;;;1.50;;
75963;SDS011;65820;44.726;37.764;2023-02-11T03:52:26;3.35;;;1.20;;
75963;SDS011;65820;44.726;37.764;2023-02-11T03:53:29;3.95;;;1.50;;
75963;SDS011;65820;44.726;37.764;2023-02-11T03:54:30;3.80;;;1.35;;
75963;SDS011;65820;44.726;37.764;2023-02-11T03:55:34;5.32;;;1.83;;
75963;SDS011;65820;44.726;37.764;2023-02-11T03:56:42;3.28;;;1.33;;
75963;SDS011;65820;44.726;37.764;2023-02-11T03:57:53;4.05;;;1.73;;
75963;SDS011;65820;44.726;37.764;2023-02-11T03:58:54;3.50;;;1.30;;
75963;SDS011;65820;44.726;37.764;2023-02-11T03:59:56;3.80;;;1.60;;
75963;SDS011;65820;44.726;37.764;2023-02-11T04:00:59;3.78;;;1.40;;
75963;SDS011;65820;44.726;37.764;2023-02-11T04:02:02;4.38;;;1.63;;
75963;SDS011;65820;44.726;37.764;2023-02-11T04:03:03;5.40;;;1.38;;
75963;SDS011;65820;44.726;37.764;2023-02-11T04:04:05;3.60;;;1.52;;
75963;SDS011;65820;44.726;37.764;2023-02-11T04:05:07;3.60;;;1.45;;
75963;SDS011;65820;44.726;37.764;2023-02-11T04:09:17;4.53;;;1.50;;
75963;SDS011;65820;44.726;37.764;2023-02-11T04:10:19;6.50;;;1.90;;
75963;SDS011;65820;44.726;37.764;2023-02-11T04:11:20;4.63;;;1.55;;
75963;SDS011;65820;44.726;37.764;2023-02-11T04:12:22;5.43;;;1.80;;
75963;SDS011;65820;44.726;37.764;2023-02-11T04:13:23;4.68;;;1.70;;
75963;SDS011;65820;44.726;37.764;2023-02-11T04:14:25;5.18;;;2.05;;
75963;SDS011;65820;44.726;37.764;2023-02-11T04:15:26;3.53;;;1.42;;
75963;SDS011;65820;44.726;37.764;2023-02-11T04:16:28;5.00;;;1.60;;
75963;SDS011;65820;44.726;37.764;2023-02-11T04:17:30;4.88;;;1.70;;
75963;SDS011;65820;44.726;37.764;2023-02-11T04:18:41;4.07;;;1.52;;
75963;SDS011;65820;44.726;37.764;2023-02-11T04:19:43;5.05;;;1.50;;
75963;SDS011;65820;44.726;37.764;2023-02-11T04:21:41;5.07;;;1.75;;
75963;SDS011;65820;44.726;37.764;2023-02-11T04:22:43;4.88;;;1.55;;
75963;SDS011;65820;44.726;37.764;2023-02-11T04:23:44;4.28;;;1.70;;
75963;SDS011;65820;44.726;37.764;2023-02-11T04:24:45;5.38;;;1.80;;
75963;SDS011;65820;44.726;37.764;2023-02-11T04:25:47;4.80;;;1.83;;
75963;SDS011;65820;44.726;37.764;2023-02-11T04:27:38;4.95;;;1.70;;
75963;SDS011;65820;44.726;37.764;2023-02-11T04:28:46;3.92;;;1.70;;
75963;SDS011;65820;44.726;37.764;2023-02-11T04:29:47;4.07;;;1.50;;
75963;SDS011;65820;44.726;37.764;2023-02-11T04:30:49;4.03;;;1.63;;
75963;SDS011;65820;44.726;37.764;2023-02-11T04:31:51;4.78;;;1.60;;
75963;SDS011;65820;44.726;37.764;2023-02-11T04:32:52;4.80;;;1.65;;
75963;SDS011;65820;44.726;37.764;2023-02-11T04:33:54;4.22;;;1.80;;
75963;SDS011;65820;44.726;37.764;2023-02-11T04:34:59;4.43;;;1.58;;
75963;SDS011;65820;44.726;37.764;2023-02-11T04:36:00;6.03;;;1.75;;
75963;SDS011;65820;44.726;37.764;2023-02-11T04:37:01;8.63;;;2.33;;
75963;SDS011;65820;44.726;37.764;2023-02-11T04:38:03;4.82;;;2.00;;
75963;SDS011;65820;44.726;37.764;2023-02-11T04:39:05;4.95;;;2.13;;
75963;SDS011;65820;44.726;37.764;2023-02-11T04:40:06;5.85;;;1.70;;
75963;SDS011;65820;44.726;37.764;2023-02-11T04:41:08;5.28;;;1.75;;
75963;SDS011;65820;44.726;37.764;2023-02-11T04:42:10;4.70;;;1.83;;
75963;SDS011;65820;44.726;37.764;2023-02-11T04:43:11;4.18;;;1.80;;
75963;SDS011;65820;44.726;37.764;2023-02-11T04:44:13;4.57;;;1.90;;
75963;SDS011;65820;44.726;37.764;2023-02-11T04:45:14;6.25;;;2.15;;
75963;SDS011;65820;44.726;37.764;2023-02-11T04:46:16;5.05;;;2.05;;
75963;SDS011;65820;44.726;37.764;2023-02-11T04:47:17;6.18;;;1.98;;
75963;SDS011;65820;44.726;37.764;2023-02-11T04:48:19;4.82;;;1.73;;
75963;SDS011;65820;44.726;37.764;2023-02-11T04:49:20;4.68;;;1.90;;
75963;SDS011;65820;44.726;37.764;2023-02-11T04:50:21;4.38;;;1.90;;
75963;SDS011;65820;44.726;37.764;2023-02-11T04:51:23;5.22;;;1.70;;
75963;SDS011;65820;44.726;37.764;2023-02-11T04:52:25;4.95;;;2.08;;
75963;SDS011;65820;44.726;37.764;2023-02-11T04:53:26;6.30;;;1.60;;
75963;SDS011;65820;44.726;37.764;2023-02-11T04:54:27;5.60;;;1.95;;
75963;SDS011;65820;44.726;37.764;2023-02-11T04:55:29;5.55;;;1.80;;
75963;SDS011;65820;44.726;37.764;2023-02-11T04:56:30;4.88;;;1.85;;
75963;SDS011;65820;44.726;37.764;2023-02-11T04:57:31;5.47;;;2.13;;
75963;SDS011;65820;44.726;37.764;2023-02-11T04:58:33;6.60;;;2.00;;
75963;SDS011;65820;44.726;37.764;2023-02-11T04:59:34;4.45;;;1.80;;
75963;SDS011;65820;44.726;37.764;2023-02-11T05:00:36;4.13;;;1.67;;
75963;SDS011;65820;44.726;37.764;2023-02-11T05:01:38;4.28;;;1.73;;
75963;SDS011;65820;44.726;37.764;2023-02-11T05:02:39;4.93;;;1.80;;
75963;SDS011;65820;44.726;37.764;2023-02-11T05:03:41;4.22;;;1.80;;
75963;SDS011;65820;44.726;37.764;2023-02-11T05:04:42;5.40;;;1.77;;
75963;SDS011;65820;44.726;37.764;2023-02-11T05:05:44;5.70;;;2.08;;
75963;SDS011;65820;44.726;37.764;2023-02-11T05:06:45;4.35;;;1.63;;
75963;SDS011;65820;44.726;37.764;2023-02-11T05:07:46;5.00;;;1.70;;
75963;SDS011;65820;44.726;37.764;2023-02-11T05:08:48;6.40;;;1.63;;
75963;SDS011;65820;44.726;37.764;2023-02-11T05:09:50;6.45;;;1.83;;
75963;SDS011;65820;44.726;37.764;2023-02-11T05:10:51;5.50;;;1.70;;
75963;SDS011;65820;44.726;37.764;2023-02-11T05:11:52;6.63;;;1.80;;
75963;SDS011;65820;44.726;37.764;2023-02-11T05:12:54;5.97;;;2.10;;
75963;SDS011;65820;44.726;37.764;2023-02-11T05:13:55;5.60;;;1.73;;
75963;SDS011;65820;44.726;37.764;2023-02-11T05:14:56;4.97;;;1.80;;
75963;SDS011;65820;44.726;37.764;2023-02-11T05:15:58;6.53;;;1.70;;
75963;SDS011;65820;44.726;37.764;2023-02-11T05:16:59;4.38;;;1.60;;
75963;SDS011;65820;44.726;37.764;2023-02-11T05:18:01;4.15;;;1.65;;
75963;SDS011;65820;44.726;37.764;2023-02-11T05:19:02;4.95;;;1.65;;
75963;SDS011;65820;44.726;37.764;2023-02-11T05:20:04;4.05;;;1.38;;
75963;SDS011;65820;44.726;37.764;2023-02-11T05:21:13;4.30;;;1.63;;
75963;SDS011;65820;44.726;37.764;2023-02-11T05:22:16;4.53;;;1.50;;
75963;SDS011;65820;44.726;37.764;2023-02-11T05:23:17;5.97;;;1.80;;
75963;SDS011;65820;44.726;37.764;2023-02-11T05:24:18;4.18;;;1.75;;
75963;SDS011;65820;44.726;37.764;2023-02-11T05:25:20;6.70;;;1.92;;
75963;SDS011;65820;44.726;37.764;2023-02-11T05:26:21;4.88;;;1.60;;
75963;SDS011;65820;44.726;37.764;2023-02-11T05:27:23;4.85;;;1.48;;
75963;SDS011;65820;44.726;37.764;2023-02-11T05:28:24;4.43;;;1.60;;
75963;SDS011;65820;44.726;37.764;2023-02-11T05:29:26;6.13;;;1.92;;
75963;SDS011;65820;44.726;37.764;2023-02-11T05:30:27;13.35;;;1.75;;
75963;SDS011;65820;44.726;37.764;2023-02-11T05:31:29;5.45;;;1.63;;
75963;SDS011;65820;44.726;37.764;2023-02-11T05:32:30;5.00;;;1.70;;
75963;SDS011;65820;44.726;37.764;2023-02-11T05:33:32;8.40;;;2.47;;
75963;SDS011;65820;44.726;37.764;2023-02-11T05:34:34;6.03;;;1.83;;
75963;SDS011;65820;44.726;37.764;2023-02-11T05:35:36;8.65;;;1.95;;
75963;SDS011;65820;44.726;37.764;2023-02-11T05:36:37;4.82;;;1.27;;
75963;SDS011;65820;44.726;37.764;2023-02-11T05:37:39;5.30;;;1.55;;
75963;SDS011;65820;44.726;37.764;2023-02-11T05:38:40;4.45;;;1.60;;
75963;SDS011;65820;44.726;37.764;2023-02-11T05:39:43;11.35;;;1.75;;
75963;SDS011;65820;44.726;37.764;2023-02-11T05:40:44;5.05;;;1.60;;
75963;SDS011;65820;44.726;37.764;2023-02-11T05:41:45;6.18;;;1.95;;
75963;SDS011;65820;44.726;37.764;2023-02-11T05:42:46;3.72;;;1.58;;
75963;SDS011;65820;44.726;37.764;2023-02-11T05:43:48;4.03;;;1.40;;
75963;SDS011;65820;44.726;37.764;2023-02-11T05:44:50;4.38;;;1.80;;
75963;SDS011;65820;44.726;37.764;2023-02-11T05:45:52;3.67;;;1.42;;
75963;SDS011;65820;44.726;37.764;2023-02-11T05:46:53;4.82;;;2.05;;
75963;SDS011;65820;44.726;37.764;2023-02-11T05:47:54;4.75;;;2.20;;
75963;SDS011;65820;44.726;37.764;2023-02-11T05:48:56;4.90;;;1.48;;
75963;SDS011;65820;44.726;37.764;2023-02-11T05:51:22;5.57;;;1.50;;
75963;SDS011;65820;44.726;37.764;2023-02-11T05:52:24;5.93;;;2.00;;
75963;SDS011;65820;44.726;37.764;2023-02-11T05:53:26;6.70;;;1.85;;
75963;SDS011;65820;44.726;37.764;2023-02-11T05:54:27;4.53;;;1.88;;
75963;SDS011;65820;44.726;37.764;2023-02-11T05:55:28;4.53;;;1.75;;
75963;SDS011;65820;44.726;37.764;2023-02-11T05:56:30;6.43;;;1.88;;
75963;SDS011;65820;44.726;37.764;2023-02-11T05:59:26;4.53;;;1.60;;
75963;SDS011;65820;44.726;37.764;2023-02-11T06:02:42;5.25;;;1.80;;
75963;SDS011;65820;44.726;37.764;2023-02-11T06:05:14;4.22;;;1.52;;
75963;SDS011;65820;44.726;37.764;2023-02-11T06:06:15;3.92;;;1.45;;
75963;SDS011;65820;44.726;37.764;2023-02-11T06:07:17;3.75;;;1.48;;
75963;SDS011;65820;44.726;37.764;2023-02-11T06:08:19;7.07;;;1.92;;
75963;SDS011;65820;44.726;37.764;2023-02-11T06:09:21;4.57;;;1.25;;
75963;SDS011;65820;44.726;37.764;2023-02-11T06:10:22;3.90;;;1.58;;
75963;SDS011;65820;44.726;37.764;2023-02-11T06:11:23;3.55;;;1.50;;
75963;SDS011;65820;44.726;37.764;2023-02-11T06:12:25;5.18;;;1.75;;
75963;SDS011;65820;44.726;37.764;2023-02-11T06:13:26;4.07;;;1.33;;
75963;SDS011;65820;44.726;37.764;2023-02-11T06:14:28;5.75;;;1.77;;
75963;SDS011;65820;44.726;37.764;2023-02-11T06:15:29;3.88;;;1.50;;
75963;SDS011;65820;44.726;37.764;2023-02-11T06:16:30;4.65;;;1.33;;
75963;SDS011;65820;44.726;37.764;2023-02-11T06:17:32;4.03;;;1.20;;
75963;SDS011;65820;44.726;37.764;2023-02-11T06:18:34;3.50;;;1.40;;
75963;SDS011;65820;44.726;37.764;2023-02-11T06:19:35;6.55;;;1.58;;
75963;SDS011;65820;44.726;37.764;2023-02-11T06:20:37;3.38;;;1.30;;
75963;SDS011;65820;44.726;37.764;2023-02-11T06:21:40;5.05;;;1.48;;
75963;SDS011;65820;44.726;37.764;2023-02-11T06:22:41;4.07;;;1.40;;
75963;SDS011;65820;44.726;37.764;2023-02-11T06:23:43;4.93;;;1.20;;
75963;SDS011;65820;44.726;37.764;2023-02-11T06:24:44;5.00;;;1.65;;
75963;SDS011;65820;44.726;37.764;2023-02-11T06:25:46;3.85;;;1.42;;
75963;SDS011;65820;44.726;37.764;2023-02-11T06:26:47;5.45;;;1.48;;
75963;SDS011;65820;44.726;37.764;2023-02-11T06:27:53;4.40;;;1.52;;
75963;SDS011;65820;44.726;37.764;2023-02-11T06:28:55;3.72;;;1.05;;
75963;SDS011;65820;44.726;37.764;2023-02-11T06:29:56;4.75;;;1.10;;
75963;SDS011;65820;44.726;37.764;2023-02-11T06:30:58;4.10;;;1.35;;
75963;SDS011;65820;44.726;37.764;2023-02-11T06:32:06;3.65;;;1.50;;
75963;SDS011;65820;44.726;37.764;2023-02-11T06:33:07;3.63;;;1.40;;
75963;SDS011;65820;44.726;37.764;2023-02-11T06:34:15;3.45;;;1.23;;
75963;SDS011;65820;44.726;37.764;2023-02-11T06:35:16;3.58;;;1.40;;
75963;SDS011;65820;44.726;37.764;2023-02-11T06:36:18;4.80;;;1.80;;
75963;SDS011;65820;44.726;37.764;2023-02-11T06:37:21;3.67;;;1.20;;
75963;SDS011;65820;44.726;37.764;2023-02-11T06:38:22;7.35;;;1.60;;
75963;SDS011;65820;44.726;37.764;2023-02-11T06:39:23;5.68;;;1.33;;
75963;SDS011;65820;44.726;37.764;2023-02-11T06:40:25;4.30;;;1.45;;
75963;SDS011;65820;44.726;37.764;2023-02-11T06:41:33;4.43;;;1.27;;
75963;SDS011;65820;44.726;37.764;2023-02-11T06:42:41;3.92;;;1.33;;
75963;SDS011;65820;44.726;37.764;2023-02-11T06:43:42;3.90;;;1.35;;
75963;SDS011;65820;44.726;37.764;2023-02-11T06:44:43;4.90;;;1.40;;
75963;SDS011;65820;44.726;37.764;2023-02-11T06:45:50;3.72;;;1.50;;
75963;SDS011;65820;44.726;37.764;2023-02-11T06:46:53;6.40;;;2.20;;
75963;SDS011;65820;44.726;37.764;2023-02-11T06:47:55;8.68;;;1.80;;
75963;SDS011;65820;44.726;37.764;2023-02-11T06:48:56;4.85;;;2.03;;
75963;SDS011;65820;44.726;37.764;2023-02-11T06:49:58;5.35;;;1.70;;
75963;SDS011;65820;44.726;37.764;2023-02-11T06:51:06;10.30;;;2.20;;
75963;SDS011;65820;44.726;37.764;2023-02-11T06:52:09;8.68;;;2.30;;
75963;SDS011;65820;44.726;37.764;2023-02-11T06:53:10;9.88;;;2.00;;
75963;SDS011;65820;44.726;37.764;2023-02-11T06:54:12;8.80;;;2.33;;
75963;SDS011;65820;44.726;37.764;2023-02-11T06:55:13;8.00;;;2.35;;
75963;SDS011;65820;44.726;37.764;2023-02-11T06:56:16;6.55;;;1.73;;
75963;SDS011;65820;44.726;37.764;2023-02-11T06:57:20;8.43;;;2.03;;
75963;SDS011;65820;44.726;37.764;2023-02-11T06:58:21;7.43;;;2.40;;
75963;SDS011;65820;44.726;37.764;2023-02-11T06:59:22;6.60;;;2.00;;
75963;SDS011;65820;44.726;37.764;2023-02-11T07:00:24;7.90;;;2.22;;
75963;SDS011;65820;44.726;37.764;2023-02-11T07:01:26;8.43;;;2.03;;
75963;SDS011;65820;44.726;37.764;2023-02-11T07:02:27;7.43;;;1.80;;
75963;SDS011;65820;44.726;37.764;2023-02-11T07:03:29;5.53;;;1.90;;
75963;SDS011;65820;44.726;37.764;2023-02-11T07:04:30;6.72;;;2.33;;
75963;SDS011;65820;44.726;37.764;2023-02-11T07:05:31;6.40;;;1.90;;
75963;SDS011;65820;44.726;37.764;2023-02-11T07:06:33;5.82;;;1.85;;
75963;SDS011;65820;44.726;37.764;2023-02-11T07:07:37;7.55;;;2.03;;
75963;SDS011;65820;44.726;37.764;2023-02-11T07:08:38;6.10;;;1.80;;
75963;SDS011;65820;44.726;37.764;2023-02-11T07:09:42;9.18;;;2.00;;
75963;SDS011;65820;44.726;37.764;2023-02-11T07:10:43;6.00;;;2.05;;
75963;SDS011;65820;44.726;37.764;2023-02-11T07:11:44;6.38;;;2.10;;
75963;SDS011;65820;44.726;37.764;2023-02-11T07:12:46;9.60;;;2.08;;
75963;SDS011;65820;44.726;37.764;2023-02-11T07:15:12;6.57;;;2.30;;
75963;SDS011;65820;44.726;37.764;2023-02-11T07:16:14;8.35;;;2.10;;
75963;SDS011;65820;44.726;37.764;2023-02-11T07:17:17;6.32;;;2.03;;
75963;SDS011;65820;44.726;37.764;2023-02-11T07:18:18;6.63;;;1.98;;
75963;SDS011;65820;44.726;37.764;2023-02-11T07:19:20;8.35;;;2.58;;
75963;SDS011;65820;44.726;37.764;2023-02-11T07:20:21;8.27;;;2.25;;
75963;SDS011;65820;44.726;37.764;2023-02-11T07:21:22;7.80;;;2.70;;
75963;SDS011;65820;44.726;37.764;2023-02-11T07:22:24;8.00;;;2.20;;
75963;SDS011;65820;44.726;37.764;2023-02-11T07:23:25;7.18;;;1.95;;
75963;SDS011;65820;44.726;37.764;2023-02-11T07:24:26;7.97;;;2.50;;
75963;SDS011;65820;44.726;37.764;2023-02-11T07:25:28;8.15;;;2.08;;
75963;SDS011;65820;44.726;37.764;2023-02-11T07:26:29;6.15;;;2.15;;
75963;SDS011;65820;44.726;37.764;2023-02-11T07:27:31;6.90;;;2.00;;
75963;SDS011;65820;44.726;37.764;2023-02-11T07:28:33;7.22;;;2.33;;
75963;SDS011;65820;44.726;37.764;2023-02-11T07:29:36;8.50;;;2.13;;
75963;SDS011;65820;44.726;37.764;2023-02-11T07:30:37;6.43;;;2.50;;
75963;SDS011;65820;44.726;37.764;2023-02-11T07:31:39;5.95;;;1.80;;
75963;SDS011;65820;44.726;37.764;2023-02-11T07:32:40;6.50;;;1.77;;
75963;SDS011;65820;44.726;37.764;2023-02-11T07:33:42;7.65;;;2.33;;
75963;SDS011;65820;44.726;37.764;2023-02-11T07:35:47;9.48;;;2.25;;
75963;SDS011;65820;44.726;37.764;2023-02-11T07:36:49;8.15;;;2.08;;
75963;SDS011;65820;44.726;37.764;2023-02-11T07:37:50;7.35;;;2.00;;
75963;SDS011;65820;44.726;37.764;2023-02-11T07:38:52;8.07;;;2.20;;
75963;SDS011;65820;44.726;37.764;2023-02-11T07:39:53;6.45;;;2.50;;
75963;SDS011;65820;44.726;37.764;2023-02-11T07:40:58;6.15;;;2.38;;
75963;SDS011;65820;44.726;37.764;2023-02-11T07:42:00;8.35;;;2.22;;
75963;SDS011;65820;44.726;37.764;2023-02-11T07:43:03;7.15;;;2.88;;
75963;SDS011;65820;44.726;37.764;2023-02-11T07:44:08;8.85;;;2.50;;
75963;SDS011;65820;44.726;37.764;2023-02-11T07:45:09;6.50;;;1.95;;
75963;SDS011;65820;44.726;37.764;2023-02-11T07:46:17;8.77;;;2.20;;
75963;SDS011;65820;44.726;37.764;2023-02-11T07:47:20;7.60;;;2.40;;
75963;SDS011;65820;44.726;37.764;2023-02-11T07:49:10;6.00;;;2.00;;
75963;SDS011;65820;44.726;37.764;2023-02-11T07:50:12;9.85;;;2.40;;
75963;SDS011;65820;44.726;37.764;2023-02-11T07:51:17;8.43;;;2.47;;
75963;SDS011;65820;44.726;37.764;2023-02-11T07:52:20;8.57;;;2.13;;
75963;SDS011;65820;44.726;37.764;2023-02-11T07:53:22;6.75;;;2.20;;
75963;SDS011;65820;44.726;37.764;2023-02-11T07:54:23;9.18;;;2.30;;
75963;SDS011;65820;44.726;37.764;2023-02-11T07:55:24;7.78;;;2.35;;
75963;SDS011;65820;44.726;37.764;2023-02-11T07:56:26;9.23;;;2.20;;
75963;SDS011;65820;44.726;37.764;2023-02-11T07:57:32;7.50;;;2.05;;
75963;SDS011;65820;44.726;37.764;2023-02-11T07:58:34;5.45;;;1.98;;
75963;SDS011;65820;44.726;37.764;2023-02-11T07:59:36;5.85;;;1.75;;
75963;SDS011;65820;44.726;37.764;2023-02-11T08:00:37;6.32;;;2.55;;
75963;SDS011;65820;44.726;37.764;2023-02-11T08:01:38;6.30;;;2.30;;
75963;SDS011;65820;44.726;37.764;2023-02-11T08:02:40;5.50;;;2.25;;
75963;SDS011;65820;44.726;37.764;2023-02-11T08:03:42;7.05;;;2.05;;
75963;SDS011;65820;44.726;37.764;2023-02-11T08:04:44;8.10;;;2.25;;
75963;SDS011;65820;44.726;37.764;2023-02-11T08:05:46;5.78;;;2.08;;
75963;SDS011;65820;44.726;37.764;2023-02-11T08:06:47;8.38;;;2.45;;
75963;SDS011;65820;44.726;37.764;2023-02-11T08:07:50;5.75;;;1.90;;
75963;SDS011;65820;44.726;37.764;2023-02-11T08:08:52;6.10;;;2.22;;
75963;SDS011;65820;44.726;37.764;2023-02-11T08:09:54;8.82;;;2.20;;
75963;SDS011;65820;44.726;37.764;2023-02-11T08:10:55;5.30;;;2.10;;
75963;SDS011;65820;44.726;37.764;2023-02-11T08:11:57;7.88;;;2.30;;
75963;SDS011;65820;44.726;37.764;2023-02-11T08:12:59;7.90;;;1.95;;
75963;SDS011;65820;44.726;37.764;2023-02-11T08:14:01;7.93;;;2.13;;
75963;SDS011;65820;44.726;37.764;2023-02-11T08:15:02;7.18;;;1.90;;
75963;SDS011;65820;44.726;37.764;2023-02-11T08:16:04;6.88;;;2.33;;
75963;SDS011;65820;44.726;37.764;2023-02-11T08:17:07;6.18;;;2.40;;
75963;SDS011;65820;44.726;37.764;2023-02-11T08:18:09;8.60;;;2.13;;
75963;SDS011;65820;44.726;37.764;2023-02-11T08:19:12;7.22;;;2.25;;
75963;SDS011;65820;44.726;37.764;2023-02-11T08:20:14;8.32;;;2.20;;
75963;SDS011;65820;44.726;37.764;2023-02-11T08:21:16;8.82;;;2.20;;
75963;SDS011;65820;44.726;37.764;2023-02-11T08:22:18;5.30;;;2.05;;
75963;SDS011;65820;44.726;37.764;2023-02-11T08:23:23;8.48;;;2.22;;
75963;SDS011;65820;44.726;37.764;2023-02-11T08:24:25;6.40;;;2.05;;
75963;SDS011;65820;44.726;37.764;2023-02-11T08:25:26;7.45;;;2.30;;
75963;SDS011;65820;44.726;37.764;2023-02-11T08:26:28;7.38;;;1.90;;
75963;SDS011;65820;44.726;37.764;2023-02-11T08:27:31;6.28;;;2.45;;
75963;SDS011;65820;44.726;37.764;2023-02-11T08:28:36;8.90;;;1.75;;
75963;SDS011;65820;44.726;37.764;2023-02-11T08:29:40;7.22;;;2.13;;
75963;SDS011;65820;44.726;37.764;2023-02-11T08:30:42;6.00;;;1.80;;
75963;SDS011;65820;44.726;37.764;2023-02-11T08:31:44;5.15;;;1.90;;
75963;SDS011;65820;44.726;37.764;2023-02-11T08:32:47;6.63;;;2.00;;
75963;SDS011;65820;44.726;37.764;2023-02-11T08:33:48;5.90;;;1.80;;
75963;SDS011;65820;44.726;37.764;2023-02-11T08:34:50;6.95;;;2.10;;
75963;SDS011;65820;44.726;37.764;2023-02-11T08:35:52;5.68;;;1.90;;
75963;SDS011;65820;44.726;37.764;2023-02-11T08:36:53;5.40;;;1.73;;